Terminal Aerodrome Forecast
Issued by NWS Upton, NY

Home | Current Version | Previous Version | Text Only | Print | Product List | Glossary On
Versions: 1 2 3 4 5 6 7 8 9 10 11 12 13 14 15 16 17 18 19 20 21 22 23 24 25 26 27 28 29 30 31 32 33
000
FTUS41 KOKX 181912 AAA
TAFEWR
TAF AMD
KEWR 181912Z 1819/1924 19006KT P6SM VCSH BKN015 BKN040 BKN250
      TEMPO 1821/1901 22010G30KT 1SM TSRA OVC025CB
     FM190400 21008KT 4SM BR VCSH OVC050
     FM190700 24005KT P6SM OVC060
     FM191400 29005KT P6SM BKN100=

USA.gov is the U.S. government's official web portal to all federal, state and local government web resources and services.